Terminal Aerodrome Forecast
Issued by NWS Charleston, WV

Current Version | Previous Version | Graphics & Text | Print | Product List | Glossary On
Versions: 1 2 3 4 5 6 7 8 9 10 11 12 13 14 15 16 17 18 19 20 21
870
FTUS41 KRLX 202339
TAFPKB
TAF
KPKB 202339Z 2100/2124 21007KT P6SM SCT060
     FM210200 21006KT P6SM VCTS BKN040CB
     FM210400 22006KT 3SM TSRA BKN040CB
     FM210700 22007KT P6SM SHRA VCTS BKN025CB
     FM210900 24007KT P6SM VCSH OVC015
     FM211700 29008KT P6SM SCT035=

USA.gov is the U.S. government's official web portal to all federal, state and local government web resources and services.